sensor_id;sensor_type;location;lat;lon;timestamp;P1;durP1;ratioP1;P2;durP2;ratioP2
32152;SDS011;18656;50.580;11.392;2024-01-30T00:00:16;11.70;;;6.13;;
32152;SDS011;18656;50.580;11.392;2024-01-30T00:02:43;13.43;;;6.22;;
32152;SDS011;18656;50.580;11.392;2024-01-30T00:05:12;8.20;;;5.03;;
32152;SDS011;18656;50.580;11.392;2024-01-30T00:07:40;10.73;;;5.95;;
32152;SDS011;18656;50.580;11.392;2024-01-30T00:10:07;10.07;;;5.60;;
32152;SDS011;18656;50.580;11.392;2024-01-30T00:12:35;8.07;;;5.53;;
32152;SDS011;18656;50.580;11.392;2024-01-30T00:15:02;11.07;;;5.38;;
32152;SDS011;18656;50.580;11.392;2024-01-30T00:17:31;10.23;;;5.60;;
32152;SDS011;18656;50.580;11.392;2024-01-30T00:19:58;8.93;;;5.50;;
32152;SDS011;18656;50.580;11.392;2024-01-30T00:22:26;8.20;;;5.03;;
32152;SDS011;18656;50.580;11.392;2024-01-30T00:24:53;9.65;;;5.53;;
32152;SDS011;18656;50.580;11.392;2024-01-30T00:27:20;7.60;;;4.72;;
32152;SDS011;18656;50.580;11.392;2024-01-30T00:29:47;12.52;;;5.07;;
32152;SDS011;18656;50.580;11.392;2024-01-30T00:32:15;10.32;;;5.53;;
32152;SDS011;18656;50.580;11.392;2024-01-30T00:34:43;10.88;;;5.13;;
32152;SDS011;18656;50.580;11.392;2024-01-30T00:37:10;9.93;;;4.95;;
32152;SDS011;18656;50.580;11.392;2024-01-30T00:39:38;10.77;;;5.00;;
32152;SDS011;18656;50.580;11.392;2024-01-30T00:42:05;7.45;;;4.75;;
32152;SDS011;18656;50.580;11.392;2024-01-30T00:44:34;11.38;;;5.10;;
32152;SDS011;18656;50.580;11.392;2024-01-30T00:47:03;9.07;;;5.15;;
32152;SDS011;18656;50.580;11.392;2024-01-30T00:49:30;10.18;;;5.30;;
32152;SDS011;18656;50.580;11.392;2024-01-30T00:51:59;8.65;;;4.97;;
32152;SDS011;18656;50.580;11.392;2024-01-30T00:54:27;9.68;;;5.10;;
32152;SDS011;18656;50.580;11.392;2024-01-30T00:56:54;7.90;;;4.50;;
32152;SDS011;18656;50.580;11.392;2024-01-30T00:59:21;7.90;;;4.60;;
32152;SDS011;18656;50.580;11.392;2024-01-30T01:01:48;6.88;;;4.28;;
32152;SDS011;18656;50.580;11.392;2024-01-30T01:04:16;5.82;;;4.15;;
32152;SDS011;18656;50.580;11.392;2024-01-30T01:06:44;5.38;;;4.28;;
32152;SDS011;18656;50.580;11.392;2024-01-30T01:09:11;7.88;;;4.53;;
32152;SDS011;18656;50.580;11.392;2024-01-30T01:11:38;7.85;;;4.97;;
32152;SDS011;18656;50.580;11.392;2024-01-30T01:14:05;6.22;;;4.63;;
32152;SDS011;18656;50.580;11.392;2024-01-30T01:16:33;8.07;;;4.88;;
32152;SDS011;18656;50.580;11.392;2024-01-30T01:19:00;6.22;;;4.15;;
32152;SDS011;18656;50.580;11.392;2024-01-30T01:21:28;5.13;;;3.85;;
32152;SDS011;18656;50.580;11.392;2024-01-30T01:23:55;6.78;;;4.22;;
32152;SDS011;18656;50.580;11.392;2024-01-30T01:26:22;4.90;;;4.00;;
32152;SDS011;18656;50.580;11.392;2024-01-30T01:28:49;7.18;;;4.03;;
32152;SDS011;18656;50.580;11.392;2024-01-30T01:31:18;7.75;;;4.38;;
32152;SDS011;18656;50.580;11.392;2024-01-30T01:33:45;7.60;;;4.07;;
32152;SDS011;18656;50.580;11.392;2024-01-30T01:36:13;9.30;;;4.50;;
32152;SDS011;18656;50.580;11.392;2024-01-30T01:38:40;7.30;;;4.47;;
32152;SDS011;18656;50.580;11.392;2024-01-30T01:41:07;6.47;;;4.35;;
32152;SDS011;18656;50.580;11.392;2024-01-30T01:43:35;6.78;;;4.57;;
32152;SDS011;18656;50.580;11.392;2024-01-30T01:46:04;7.07;;;4.38;;
32152;SDS011;18656;50.580;11.392;2024-01-30T01:48:32;9.63;;;4.40;;
32152;SDS011;18656;50.580;11.392;2024-01-30T01:50:59;8.98;;;4.47;;
32152;SDS011;18656;50.580;11.392;2024-01-30T01:53:27;7.03;;;4.45;;
32152;SDS011;18656;50.580;11.392;2024-01-30T01:55:54;6.88;;;4.55;;
32152;SDS011;18656;50.580;11.392;2024-01-30T01:58:22;7.20;;;4.28;;
32152;SDS011;18656;50.580;11.392;2024-01-30T02:00:50;5.50;;;4.15;;
32152;SDS011;18656;50.580;11.392;2024-01-30T02:03:18;6.68;;;4.03;;
32152;SDS011;18656;50.580;11.392;2024-01-30T02:05:48;6.35;;;4.10;;
32152;SDS011;18656;50.580;11.392;2024-01-30T02:08:16;5.22;;;3.72;;
32152;SDS011;18656;50.580;11.392;2024-01-30T02:10:43;8.27;;;4.25;;
32152;SDS011;18656;50.580;11.392;2024-01-30T02:13:12;7.78;;;4.20;;
32152;SDS011;18656;50.580;11.392;2024-01-30T02:15:40;9.30;;;4.28;;
32152;SDS011;18656;50.580;11.392;2024-01-30T02:18:09;8.07;;;4.45;;
32152;SDS011;18656;50.580;11.392;2024-01-30T02:23:19;7.20;;;4.25;;
32152;SDS011;18656;50.580;11.392;2024-01-30T02:25:46;7.25;;;4.13;;
32152;SDS011;18656;50.580;11.392;2024-01-30T02:28:14;7.70;;;4.00;;
32152;SDS011;18656;50.580;11.392;2024-01-30T02:30:45;7.10;;;4.45;;
32152;SDS011;18656;50.580;11.392;2024-01-30T02:33:13;7.72;;;4.47;;
32152;SDS011;18656;50.580;11.392;2024-01-30T02:35:40;8.60;;;4.10;;
32152;SDS011;18656;50.580;11.392;2024-01-30T02:38:07;7.03;;;4.57;;
32152;SDS011;18656;50.580;11.392;2024-01-30T02:40:35;7.90;;;4.00;;
32152;SDS011;18656;50.580;11.392;2024-01-30T02:43:02;11.25;;;5.00;;
32152;SDS011;18656;50.580;11.392;2024-01-30T02:45:30;5.68;;;4.10;;
32152;SDS011;18656;50.580;11.392;2024-01-30T02:47:57;11.68;;;5.00;;
32152;SDS011;18656;50.580;11.392;2024-01-30T02:50:25;6.95;;;4.60;;
32152;SDS011;18656;50.580;11.392;2024-01-30T02:52:52;7.18;;;4.18;;
32152;SDS011;18656;50.580;11.392;2024-01-30T02:55:19;7.93;;;4.05;;
32152;SDS011;18656;50.580;11.392;2024-01-30T02:57:47;8.07;;;4.82;;
32152;SDS011;18656;50.580;11.392;2024-01-30T03:00:14;8.85;;;4.55;;
32152;SDS011;18656;50.580;11.392;2024-01-30T03:02:42;6.38;;;4.20;;
32152;SDS011;18656;50.580;11.392;2024-01-30T03:05:09;9.77;;;4.80;;
32152;SDS011;18656;50.580;11.392;2024-01-30T03:07:36;9.88;;;4.82;;
32152;SDS011;18656;50.580;11.392;2024-01-30T03:10:04;8.20;;;4.70;;
32152;SDS011;18656;50.580;11.392;2024-01-30T03:12:32;7.15;;;4.70;;
32152;SDS011;18656;50.580;11.392;2024-01-30T03:14:59;7.65;;;4.20;;
32152;SDS011;18656;50.580;11.392;2024-01-30T03:17:27;6.32;;;4.80;;
32152;SDS011;18656;50.580;11.392;2024-01-30T03:19:54;5.82;;;4.50;;
32152;SDS011;18656;50.580;11.392;2024-01-30T03:22:22;7.22;;;4.22;;
32152;SDS011;18656;50.580;11.392;2024-01-30T03:24:50;9.30;;;4.93;;
32152;SDS011;18656;50.580;11.392;2024-01-30T03:27:17;9.13;;;5.30;;
32152;SDS011;18656;50.580;11.392;2024-01-30T03:29:45;10.48;;;4.85;;
32152;SDS011;18656;50.580;11.392;2024-01-30T03:32:13;7.70;;;4.60;;
32152;SDS011;18656;50.580;11.392;2024-01-30T03:34:40;6.25;;;4.28;;
32152;SDS011;18656;50.580;11.392;2024-01-30T03:37:08;7.00;;;4.25;;
32152;SDS011;18656;50.580;11.392;2024-01-30T03:39:35;7.05;;;4.72;;
32152;SDS011;18656;50.580;11.392;2024-01-30T03:42:03;7.95;;;4.55;;
32152;SDS011;18656;50.580;11.392;2024-01-30T03:44:30;8.98;;;5.07;;
32152;SDS011;18656;50.580;11.392;2024-01-30T03:46:57;8.18;;;4.90;;
32152;SDS011;18656;50.580;11.392;2024-01-30T03:49:26;7.43;;;4.35;;
32152;SDS011;18656;50.580;11.392;2024-01-30T03:51:54;8.50;;;5.10;;
32152;SDS011;18656;50.580;11.392;2024-01-30T03:54:21;10.88;;;4.63;;
32152;SDS011;18656;50.580;11.392;2024-01-30T03:56:48;7.22;;;4.50;;
32152;SDS011;18656;50.580;11.392;2024-01-30T03:59:16;7.38;;;4.82;;
32152;SDS011;18656;50.580;11.392;2024-01-30T04:01:48;9.97;;;4.73;;
32152;SDS011;18656;50.580;11.392;2024-01-30T04:04:15;10.45;;;4.40;;
32152;SDS011;18656;50.580;11.392;2024-01-30T04:06:43;8.48;;;4.60;;
32152;SDS011;18656;50.580;11.392;2024-01-30T04:09:11;7.30;;;4.70;;
32152;SDS011;18656;50.580;11.392;2024-01-30T04:11:39;5.88;;;3.75;;
32152;SDS011;18656;50.580;11.392;2024-01-30T04:14:06;6.72;;;4.65;;
32152;SDS011;18656;50.580;11.392;2024-01-30T04:16:36;6.20;;;4.50;;
32152;SDS011;18656;50.580;11.392;2024-01-30T04:19:04;8.07;;;4.97;;
32152;SDS011;18656;50.580;11.392;2024-01-30T04:21:31;7.72;;;5.35;;
32152;SDS011;18656;50.580;11.392;2024-01-30T04:23:58;7.75;;;4.80;;
32152;SDS011;18656;50.580;11.392;2024-01-30T04:26:26;8.98;;;5.13;;
32152;SDS011;18656;50.580;11.392;2024-01-30T04:28:53;8.60;;;5.40;;
32152;SDS011;18656;50.580;11.392;2024-01-30T04:31:20;16.15;;;5.40;;
32152;SDS011;18656;50.580;11.392;2024-01-30T04:33:47;9.70;;;5.45;;
32152;SDS011;18656;50.580;11.392;2024-01-30T04:36:15;8.15;;;5.38;;
32152;SDS011;18656;50.580;11.392;2024-01-30T04:38:43;12.40;;;5.63;;
32152;SDS011;18656;50.580;11.392;2024-01-30T04:41:10;8.02;;;5.43;;
32152;SDS011;18656;50.580;11.392;2024-01-30T04:43:37;6.93;;;5.60;;
32152;SDS011;18656;50.580;11.392;2024-01-30T04:46:19;10.82;;;6.20;;
32152;SDS011;18656;50.580;11.392;2024-01-30T04:48:46;10.05;;;6.35;;
32152;SDS011;18656;50.580;11.392;2024-01-30T04:51:14;11.65;;;7.18;;
32152;SDS011;18656;50.580;11.392;2024-01-30T04:53:41;11.00;;;6.30;;
32152;SDS011;18656;50.580;11.392;2024-01-30T04:56:08;13.68;;;6.03;;
32152;SDS011;18656;50.580;11.392;2024-01-30T04:58:35;10.13;;;5.82;;
32152;SDS011;18656;50.580;11.392;2024-01-30T05:01:02;9.20;;;5.90;;
32152;SDS011;18656;50.580;11.392;2024-01-30T05:03:32;10.88;;;5.45;;
32152;SDS011;18656;50.580;11.392;2024-01-30T05:06:00;10.95;;;5.63;;
32152;SDS011;18656;50.580;11.392;2024-01-30T05:08:28;10.70;;;5.95;;
32152;SDS011;18656;50.580;11.392;2024-01-30T05:10:55;7.95;;;5.78;;
32152;SDS011;18656;50.580;11.392;2024-01-30T05:13:23;12.20;;;5.53;;
32152;SDS011;18656;50.580;11.392;2024-01-30T05:15:50;12.00;;;5.82;;
32152;SDS011;18656;50.580;11.392;2024-01-30T05:18:17;9.20;;;4.80;;
32152;SDS011;18656;50.580;11.392;2024-01-30T05:20:44;8.93;;;5.30;;
32152;SDS011;18656;50.580;11.392;2024-01-30T05:23:12;10.82;;;5.10;;
32152;SDS011;18656;50.580;11.392;2024-01-30T05:25:39;9.63;;;5.55;;
32152;SDS011;18656;50.580;11.392;2024-01-30T05:28:06;11.18;;;6.00;;
32152;SDS011;18656;50.580;11.392;2024-01-30T05:30:33;7.72;;;5.38;;
32152;SDS011;18656;50.580;11.392;2024-01-30T05:33:00;8.43;;;5.65;;
32152;SDS011;18656;50.580;11.392;2024-01-30T05:35:28;6.30;;;4.82;;
32152;SDS011;18656;50.580;11.392;2024-01-30T05:37:55;9.63;;;5.85;;
32152;SDS011;18656;50.580;11.392;2024-01-30T05:40:22;6.38;;;5.55;;
32152;SDS011;18656;50.580;11.392;2024-01-30T05:42:50;9.18;;;5.25;;
32152;SDS011;18656;50.580;11.392;2024-01-30T05:45:17;8.05;;;5.18;;
32152;SDS011;18656;50.580;11.392;2024-01-30T05:47:44;8.40;;;5.50;;
32152;SDS011;18656;50.580;11.392;2024-01-30T05:50:11;9.38;;;5.60;;
32152;SDS011;18656;50.580;11.392;2024-01-30T05:52:39;9.85;;;5.50;;
32152;SDS011;18656;50.580;11.392;2024-01-30T05:55:06;6.43;;;5.00;;
32152;SDS011;18656;50.580;11.392;2024-01-30T05:57:33;9.50;;;5.90;;
32152;SDS011;18656;50.580;11.392;2024-01-30T06:00:01;10.82;;;5.15;;
32152;SDS011;18656;50.580;11.392;2024-01-30T06:02:28;10.82;;;5.68;;
32152;SDS011;18656;50.580;11.392;2024-01-30T06:04:55;10.93;;;5.60;;
32152;SDS011;18656;50.580;11.392;2024-01-30T06:07:22;8.45;;;5.53;;
32152;SDS011;18656;50.580;11.392;2024-01-30T06:09:50;7.10;;;5.70;;
32152;SDS011;18656;50.580;11.392;2024-01-30T06:12:17;8.43;;;5.78;;
32152;SDS011;18656;50.580;11.392;2024-01-30T06:14:45;11.32;;;5.68;;
32152;SDS011;18656;50.580;11.392;2024-01-30T06:17:13;11.07;;;5.85;;
32152;SDS011;18656;50.580;11.392;2024-01-30T06:19:40;10.48;;;5.70;;
32152;SDS011;18656;50.580;11.392;2024-01-30T06:22:08;10.93;;;6.00;;
32152;SDS011;18656;50.580;11.392;2024-01-30T06:24:35;9.48;;;5.65;;
32152;SDS011;18656;50.580;11.392;2024-01-30T06:27:02;12.10;;;6.10;;
32152;SDS011;18656;50.580;11.392;2024-01-30T06:29:30;13.82;;;6.60;;
32152;SDS011;18656;50.580;11.392;2024-01-30T06:31:57;15.70;;;6.82;;
32152;SDS011;18656;50.580;11.392;2024-01-30T06:34:24;12.52;;;6.57;;
32152;SDS011;18656;50.580;11.392;2024-01-30T06:36:55;8.00;;;5.93;;
32152;SDS011;18656;50.580;11.392;2024-01-30T06:39:22;9.05;;;5.55;;
32152;SDS011;18656;50.580;11.392;2024-01-30T06:41:49;15.43;;;7.13;;
32152;SDS011;18656;50.580;11.392;2024-01-30T06:44:16;10.38;;;6.50;;
32152;SDS011;18656;50.580;11.392;2024-01-30T06:46:43;12.18;;;6.60;;
32152;SDS011;18656;50.580;11.392;2024-01-30T06:49:11;10.50;;;6.47;;
32152;SDS011;18656;50.580;11.392;2024-01-30T06:51:38;8.85;;;6.55;;
32152;SDS011;18656;50.580;11.392;2024-01-30T06:54:05;11.40;;;6.75;;
32152;SDS011;18656;50.580;11.392;2024-01-30T06:56:32;14.90;;;7.75;;
32152;SDS011;18656;50.580;11.392;2024-01-30T06:59:00;13.05;;;8.27;;
32152;SDS011;18656;50.580;11.392;2024-01-30T07:01:30;15.75;;;8.40;;
32152;SDS011;18656;50.580;11.392;2024-01-30T07:03:59;15.88;;;9.30;;
32152;SDS011;18656;50.580;11.392;2024-01-30T07:06:26;16.50;;;9.23;;
32152;SDS011;18656;50.580;11.392;2024-01-30T07:08:53;15.15;;;10.63;;
32152;SDS011;18656;50.580;11.392;2024-01-30T07:11:20;17.17;;;8.85;;
32152;SDS011;18656;50.580;11.392;2024-01-30T07:13:48;16.25;;;8.25;;
32152;SDS011;18656;50.580;11.392;2024-01-30T07:16:16;14.35;;;6.97;;
32152;SDS011;18656;50.580;11.392;2024-01-30T07:18:43;14.93;;;7.60;;
32152;SDS011;18656;50.580;11.392;2024-01-30T07:21:12;17.00;;;8.77;;
32152;SDS011;18656;50.580;11.392;2024-01-30T07:23:39;15.23;;;10.77;;
32152;SDS011;18656;50.580;11.392;2024-01-30T07:26:07;15.65;;;9.55;;
32152;SDS011;18656;50.580;11.392;2024-01-30T07:28:35;17.55;;;8.10;;
32152;SDS011;18656;50.580;11.392;2024-01-30T07:31:02;11.43;;;7.43;;
32152;SDS011;18656;50.580;11.392;2024-01-30T07:33:30;9.55;;;6.32;;
32152;SDS011;18656;50.580;11.392;2024-01-30T07:35:57;11.52;;;6.28;;
32152;SDS011;18656;50.580;11.392;2024-01-30T07:38:24;9.48;;;5.65;;
32152;SDS011;18656;50.580;11.392;2024-01-30T07:40:51;11.68;;;5.78;;
32152;SDS011;18656;50.580;11.392;2024-01-30T07:43:19;7.93;;;5.97;;
32152;SDS011;18656;50.580;11.392;2024-01-30T07:45:46;7.78;;;5.30;;
32152;SDS011;18656;50.580;11.392;2024-01-30T07:48:14;12.10;;;4.97;;
32152;SDS011;18656;50.580;11.392;2024-01-30T07:50:41;10.27;;;5.00;;
32152;SDS011;18656;50.580;11.392;2024-01-30T07:53:08;10.20;;;5.68;;
32152;SDS011;18656;50.580;11.392;2024-01-30T07:55:36;12.07;;;4.80;;
32152;SDS011;18656;50.580;11.392;2024-01-30T07:58:03;8.23;;;5.57;;
32152;SDS011;18656;50.580;11.392;2024-01-30T08:00:31;10.65;;;5.53;;
32152;SDS011;18656;50.580;11.392;2024-01-30T08:02:58;8.77;;;5.30;;
32152;SDS011;18656;50.580;11.392;2024-01-30T08:05:25;9.18;;;5.10;;
32152;SDS011;18656;50.580;11.392;2024-01-30T08:07:53;6.95;;;5.32;;
32152;SDS011;18656;50.580;11.392;2024-01-30T08:10:20;11.52;;;5.55;;
32152;SDS011;18656;50.580;11.392;2024-01-30T08:12:47;8.85;;;5.07;;
32152;SDS011;18656;50.580;11.392;2024-01-30T08:15:15;8.45;;;5.45;;
32152;SDS011;18656;50.580;11.392;2024-01-30T08:17:42;7.72;;;5.05;;
32152;SDS011;18656;50.580;11.392;2024-01-30T08:20:11;8.52;;;5.18;;
32152;SDS011;18656;50.580;11.392;2024-01-30T08:22:39;8.90;;;5.40;;
32152;SDS011;18656;50.580;11.392;2024-01-30T08:25:07;9.20;;;5.53;;
32152;SDS011;18656;50.580;11.392;2024-01-30T08:27:36;12.68;;;8.23;;
32152;SDS011;18656;50.580;11.392;2024-01-30T08:30:08;17.00;;;12.00;;
32152;SDS011;18656;50.580;11.392;2024-01-30T08:32:35;11.45;;;6.22;;
32152;SDS011;18656;50.580;11.392;2024-01-30T08:35:02;7.80;;;4.82;;
32152;SDS011;18656;50.580;11.392;2024-01-30T08:37:30;6.57;;;4.75;;
32152;SDS011;18656;50.580;11.392;2024-01-30T08:39:57;8.35;;;5.10;;
32152;SDS011;18656;50.580;11.392;2024-01-30T08:42:26;9.77;;;5.75;;
32152;SDS011;18656;50.580;11.392;2024-01-30T08:44:53;9.52;;;5.97;;
32152;SDS011;18656;50.580;11.392;2024-01-30T08:47:21;9.35;;;5.80;;
32152;SDS011;18656;50.580;11.392;2024-01-30T08:49:49;8.27;;;6.03;;
32152;SDS011;18656;50.580;11.392;2024-01-30T08:52:17;8.98;;;5.38;;
32152;SDS011;18656;50.580;11.392;2024-01-30T08:54:44;7.88;;;5.70;;
32152;SDS011;18656;50.580;11.392;2024-01-30T08:57:12;7.65;;;5.80;;
32152;SDS011;18656;50.580;11.392;2024-01-30T08:59:39;7.60;;;5.97;;
32152;SDS011;18656;50.580;11.392;2024-01-30T09:02:06;8.52;;;5.75;;
32152;SDS011;18656;50.580;11.392;2024-01-30T09:04:38;10.65;;;6.05;;
32152;SDS011;18656;50.580;11.392;2024-01-30T09:07:06;7.18;;;5.45;;
32152;SDS011;18656;50.580;11.392;2024-01-30T09:09:39;11.80;;;6.60;;
32152;SDS011;18656;50.580;11.392;2024-01-30T09:12:07;7.10;;;5.68;;
32152;SDS011;18656;50.580;11.392;2024-01-30T09:14:38;7.10;;;5.55;;
32152;SDS011;18656;50.580;11.392;2024-01-30T09:17:06;10.07;;;5.90;;
32152;SDS011;18656;50.580;11.392;2024-01-30T09:19:34;8.07;;;5.88;;
32152;SDS011;18656;50.580;11.392;2024-01-30T09:22:02;10.00;;;5.88;;
32152;SDS011;18656;50.580;11.392;2024-01-30T09:24:29;5.93;;;5.07;;
32152;SDS011;18656;50.580;11.392;2024-01-30T09:26:57;9.00;;;5.85;;
32152;SDS011;18656;50.580;11.392;2024-01-30T09:29:24;8.90;;;5.63;;
32152;SDS011;18656;50.580;11.392;2024-01-30T09:31:52;7.03;;;5.40;;
32152;SDS011;18656;50.580;11.392;2024-01-30T09:34:19;9.75;;;6.10;;
32152;SDS011;18656;50.580;11.392;2024-01-30T09:36:47;12.15;;;5.78;;
32152;SDS011;18656;50.580;11.392;2024-01-30T09:39:14;10.93;;;5.47;;
32152;SDS011;18656;50.580;11.392;2024-01-30T09:41:44;8.70;;;6.05;;
32152;SDS011;18656;50.580;11.392;2024-01-30T09:44:12;7.28;;;5.70;;
32152;SDS011;18656;50.580;11.392;2024-01-30T09:46:40;7.05;;;5.53;;
32152;SDS011;18656;50.580;11.392;2024-01-30T09:49:08;9.48;;;6.18;;
32152;SDS011;18656;50.580;11.392;2024-01-30T09:51:36;8.88;;;5.80;;
32152;SDS011;18656;50.580;11.392;2024-01-30T09:54:03;7.28;;;5.55;;
32152;SDS011;18656;50.580;11.392;2024-01-30T09:56:30;12.63;;;5.55;;
32152;SDS011;18656;50.580;11.392;2024-01-30T09:58:58;8.27;;;5.68;;
32152;SDS011;18656;50.580;11.392;2024-01-30T10:01:25;9.38;;;6.57;;
32152;SDS011;18656;50.580;11.392;2024-01-30T10:03:53;8.63;;;5.32;;
32152;SDS011;18656;50.580;11.392;2024-01-30T10:06:21;6.78;;;5.35;;
32152;SDS011;18656;50.580;11.392;2024-01-30T10:08:50;8.38;;;5.78;;
32152;SDS011;18656;50.580;11.392;2024-01-30T10:11:18;8.13;;;5.68;;
32152;SDS011;18656;50.580;11.392;2024-01-30T10:13:45;9.73;;;5.30;;
32152;SDS011;18656;50.580;11.392;2024-01-30T10:16:15;8.95;;;6.07;;
32152;SDS011;18656;50.580;11.392;2024-01-30T10:18:43;8.75;;;5.45;;
32152;SDS011;18656;50.580;11.392;2024-01-30T10:21:11;9.70;;;6.10;;
32152;SDS011;18656;50.580;11.392;2024-01-30T10:23:38;8.18;;;5.68;;
32152;SDS011;18656;50.580;11.392;2024-01-30T10:26:06;9.73;;;6.10;;
32152;SDS011;18656;50.580;11.392;2024-01-30T10:28:34;8.13;;;5.55;;
32152;SDS011;18656;50.580;11.392;2024-01-30T10:31:02;8.70;;;5.97;;
32152;SDS011;18656;50.580;11.392;2024-01-30T10:33:32;9.82;;;5.60;;
32152;SDS011;18656;50.580;11.392;2024-01-30T10:36:02;8.60;;;6.10;;
32152;SDS011;18656;50.580;11.392;2024-01-30T10:38:29;8.70;;;6.07;;
32152;SDS011;18656;50.580;11.392;2024-01-30T10:40:58;9.30;;;5.78;;
32152;SDS011;18656;50.580;11.392;2024-01-30T10:43:40;9.07;;;6.30;;
32152;SDS011;18656;50.580;11.392;2024-01-30T10:46:16;10.70;;;6.17;;
32152;SDS011;18656;50.580;11.392;2024-01-30T10:48:57;12.38;;;6.70;;
32152;SDS011;18656;50.580;11.392;2024-01-30T10:51:26;10.25;;;6.25;;
32152;SDS011;18656;50.580;11.392;2024-01-30T10:53:54;9.48;;;6.65;;
32152;SDS011;18656;50.580;11.392;2024-01-30T10:56:23;15.50;;;6.82;;
32152;SDS011;18656;50.580;11.392;2024-01-30T10:58:51;13.27;;;6.88;;
32152;SDS011;18656;50.580;11.392;2024-01-30T11:01:19;8.55;;;6.15;;
32152;SDS011;18656;50.580;11.392;2024-01-30T11:03:52;13.40;;;6.40;;
32152;SDS011;18656;50.580;11.392;2024-01-30T11:06:24;8.25;;;6.13;;
32152;SDS011;18656;50.580;11.392;2024-01-30T11:09:05;12.65;;;6.93;;
32152;SDS011;18656;50.580;11.392;2024-01-30T11:11:56;9.10;;;5.90;;
32152;SDS011;18656;50.580;11.392;2024-01-30T11:14:29;8.73;;;6.03;;
32152;SDS011;18656;50.580;11.392;2024-01-30T11:16:59;8.30;;;6.07;;
32152;SDS011;18656;50.580;11.392;2024-01-30T11:19:27;11.32;;;6.35;;
32152;SDS011;18656;50.580;11.392;2024-01-30T11:21:55;8.65;;;5.97;;
32152;SDS011;18656;50.580;11.392;2024-01-30T11:24:25;7.25;;;6.10;;
32152;SDS011;18656;50.580;11.392;2024-01-30T11:26:56;17.45;;;5.82;;
32152;SDS011;18656;50.580;11.392;2024-01-30T11:29:27;8.18;;;5.97;;
32152;SDS011;18656;50.580;11.392;2024-01-30T11:31:55;7.47;;;5.63;;
32152;SDS011;18656;50.580;11.392;2024-01-30T11:34:23;14.63;;;6.22;;
32152;SDS011;18656;50.580;11.392;2024-01-30T11:37:03;7.68;;;5.47;;
32152;SDS011;18656;50.580;11.392;2024-01-30T11:39:30;7.13;;;5.47;;
32152;SDS011;18656;50.580;11.392;2024-01-30T11:41:58;7.35;;;5.38;;
32152;SDS011;18656;50.580;11.392;2024-01-30T11:44:25;10.68;;;5.80;;
32152;SDS011;18656;50.580;11.392;2024-01-30T11:46:53;7.38;;;5.80;;
32152;SDS011;18656;50.580;11.392;2024-01-30T11:49:20;8.93;;;5.65;;
32152;SDS011;18656;50.580;11.392;2024-01-30T11:51:48;10.68;;;6.43;;
32152;SDS011;18656;50.580;11.392;2024-01-30T11:54:16;10.20;;;5.95;;
32152;SDS011;18656;50.580;11.392;2024-01-30T11:56:43;15.48;;;6.75;;
32152;SDS011;18656;50.580;11.392;2024-01-30T11:59:10;11.07;;;6.43;;
32152;SDS011;18656;50.580;11.392;2024-01-30T12:01:38;14.23;;;7.00;;
32152;SDS011;18656;50.580;11.392;2024-01-30T12:04:05;9.75;;;5.78;;
32152;SDS011;18656;50.580;11.392;2024-01-30T12:06:36;10.63;;;6.22;;
32152;SDS011;18656;50.580;11.392;2024-01-30T12:09:04;12.32;;;6.28;;
32152;SDS011;18656;50.580;11.392;2024-01-30T12:11:55;9.85;;;6.03;;
32152;SDS011;18656;50.580;11.392;2024-01-30T12:14:22;22.23;;;6.22;;
32152;SDS011;18656;50.580;11.392;2024-01-30T12:16:51;9.75;;;5.47;;
32152;SDS011;18656;50.580;11.392;2024-01-30T12:19:22;9.73;;;5.88;;
32152;SDS011;18656;50.580;11.392;2024-01-30T12:21:59;8.32;;;5.70;;
32152;SDS011;18656;50.580;11.392;2024-01-30T12:24:26;8.85;;;5.93;;
32152;SDS011;18656;50.580;11.392;2024-01-30T12:26:57;9.15;;;6.03;;
32152;SDS011;18656;50.580;11.392;2024-01-30T12:29:25;9.80;;;5.68;;
32152;SDS011;18656;50.580;11.392;2024-01-30T12:32:00;7.68;;;5.63;;
32152;SDS011;18656;50.580;11.392;2024-01-30T12:34:27;9.23;;;5.72;;
32152;SDS011;18656;50.580;11.392;2024-01-30T12:36:56;11.48;;;6.00;;
32152;SDS011;18656;50.580;11.392;2024-01-30T12:39:24;10.38;;;6.28;;
32152;SDS011;18656;50.580;11.392;2024-01-30T12:41:52;9.40;;;5.78;;
32152;SDS011;18656;50.580;11.392;2024-01-30T12:44:19;7.68;;;5.85;;
32152;SDS011;18656;50.580;11.392;2024-01-30T12:46:46;12.18;;;6.22;;
32152;SDS011;18656;50.580;11.392;2024-01-30T12:49:14;7.70;;;6.05;;
32152;SDS011;18656;50.580;11.392;2024-01-30T12:51:42;15.55;;;7.20;;
32152;SDS011;18656;50.580;11.392;2024-01-30T12:54:09;12.77;;;8.02;;
32152;SDS011;18656;50.580;11.392;2024-01-30T12:56:37;14.00;;;8.77;;
32152;SDS011;18656;50.580;11.392;2024-01-30T12:59:04;11.90;;;6.72;;
32152;SDS011;18656;50.580;11.392;2024-01-30T13:01:31;9.25;;;6.03;;
32152;SDS011;18656;50.580;11.392;2024-01-30T13:03:59;8.45;;;5.88;;
32152;SDS011;18656;50.580;11.392;2024-01-30T13:06:26;10.25;;;6.10;;
32152;SDS011;18656;50.580;11.392;2024-01-30T13:08:53;9.18;;;5.90;;
32152;SDS011;18656;50.580;11.392;2024-01-30T13:11:20;9.15;;;6.32;;
32152;SDS011;18656;50.580;11.392;2024-01-30T13:13:48;7.35;;;5.63;;
32152;SDS011;18656;50.580;11.392;2024-01-30T13:16:15;12.25;;;6.20;;
32152;SDS011;18656;50.580;11.392;2024-01-30T13:18:43;10.15;;;4.93;;
32152;SDS011;18656;50.580;11.392;2024-01-30T13:21:11;10.43;;;5.90;;
32152;SDS011;18656;50.580;11.392;2024-01-30T13:23:38;14.65;;;6.03;;
32152;SDS011;18656;50.580;11.392;2024-01-30T13:26:05;9.50;;;5.75;;
32152;SDS011;18656;50.580;11.392;2024-01-30T13:28:33;8.95;;;5.30;;
32152;SDS011;18656;50.580;11.392;2024-01-30T13:31:00;9.55;;;5.70;;
32152;SDS011;18656;50.580;11.392;2024-01-30T13:33:28;6.47;;;5.70;;
32152;SDS011;18656;50.580;11.392;2024-01-30T13:35:55;8.82;;;5.40;;
32152;SDS011;18656;50.580;11.392;2024-01-30T13:38:23;8.93;;;5.65;;
32152;SDS011;18656;50.580;11.392;2024-01-30T13:40:50;15.57;;;6.35;;
32152;SDS011;18656;50.580;11.392;2024-01-30T13:43:17;9.57;;;6.07;;
32152;SDS011;18656;50.580;11.392;2024-01-30T13:45:44;6.95;;;5.40;;
32152;SDS011;18656;50.580;11.392;2024-01-30T13:48:12;8.27;;;5.90;;
32152;SDS011;18656;50.580;11.392;2024-01-30T13:50:39;10.05;;;6.13;;
32152;SDS011;18656;50.580;11.392;2024-01-30T13:53:07;11.50;;;5.40;;
32152;SDS011;18656;50.580;11.392;2024-01-30T13:55:34;7.50;;;5.95;;
32152;SDS011;18656;50.580;11.392;2024-01-30T13:58:02;7.30;;;5.65;;
32152;SDS011;18656;50.580;11.392;2024-01-30T14:00:29;12.68;;;5.25;;
32152;SDS011;18656;50.580;11.392;2024-01-30T14:02:56;10.48;;;5.78;;
32152;SDS011;18656;50.580;11.392;2024-01-30T14:05:25;7.88;;;5.25;;
32152;SDS011;18656;50.580;11.392;2024-01-30T14:07:56;14.05;;;5.93;;
32152;SDS011;18656;50.580;11.392;2024-01-30T14:10:24;9.13;;;5.60;;
32152;SDS011;18656;50.580;11.392;2024-01-30T14:12:52;11.85;;;6.05;;
32152;SDS011;18656;50.580;11.392;2024-01-30T14:15:19;7.95;;;5.60;;
32152;SDS011;18656;50.580;11.392;2024-01-30T14:17:54;5.68;;;4.97;;
32152;SDS011;18656;50.580;11.392;2024-01-30T14:20:23;6.97;;;5.40;;
32152;SDS011;18656;50.580;11.392;2024-01-30T14:22:50;11.23;;;5.57;;
32152;SDS011;18656;50.580;11.392;2024-01-30T14:25:20;13.05;;;6.57;;
32152;SDS011;18656;50.580;11.392;2024-01-30T14:27:47;10.73;;;5.63;;
32152;SDS011;18656;50.580;11.392;2024-01-30T14:30:14;8.02;;;4.63;;
32152;SDS011;18656;50.580;11.392;2024-01-30T14:32:41;13.10;;;5.70;;
32152;SDS011;18656;50.580;11.392;2024-01-30T14:35:11;11.77;;;5.03;;
32152;SDS011;18656;50.580;11.392;2024-01-30T14:37:38;7.95;;;4.75;;